createdAt,value
2023-05-07T00:02:33.633Z,1.67
2023-05-07T00:06:37.134Z,0.90
2023-05-07T00:10:43.835Z,1.77
2023-05-07T00:14:47.280Z,2.93
2023-05-07T00:18:50.653Z,1.47
2023-05-07T00:22:55.115Z,2.80
2023-05-07T00:26:59.811Z,3.27
2023-05-07T00:31:03.348Z,2.43
2023-05-07T00:35:07.911Z,4.30
2023-05-07T00:39:12.375Z,8.77
2023-05-07T00:43:17.292Z,6.07
2023-05-07T00:47:20.772Z,9.00
2023-05-07T00:51:25.429Z,10.20
2023-05-07T00:55:29.392Z,8.67
2023-05-07T00:59:34.904Z,7.20
2023-05-07T01:03:38.708Z,5.30
2023-05-07T01:07:44.171Z,5.80
2023-05-07T01:11:49.868Z,3.27
2023-05-07T01:15:55.368Z,2.63
2023-05-07T01:19:59.200Z,5.63
2023-05-07T01:24:05.802Z,5.33
2023-05-07T01:28:10.152Z,3.70
2023-05-07T01:32:17.494Z,3.47
2023-05-07T01:36:22.448Z,5.07
2023-05-07T01:40:28.175Z,3.40
2023-05-07T01:44:31.907Z,3.27
2023-05-07T01:48:35.660Z,4.17
2023-05-07T01:52:40.327Z,3.63
2023-05-07T01:56:45.756Z,4.17
2023-05-07T02:05:44.036Z,3.63
2023-05-07T02:09:57.108Z,4.63
2023-05-07T02:14:01.885Z,5.33
2023-05-07T02:18:07.441Z,6.33
2023-05-07T02:22:12.720Z,6.63
2023-05-07T02:26:16.015Z,6.90
2023-05-07T02:30:22.486Z,8.30
2023-05-07T02:34:29.601Z,6.43
2023-05-07T02:38:33.300Z,9.50
2023-05-07T02:42:36.809Z,9.37
2023-05-07T02:51:49.246Z,10.10
2023-05-07T02:56:09.643Z,8.30
2023-05-07T03:00:18.398Z,11.20
2023-05-07T03:04:50.631Z,8.57
2023-05-07T03:09:13.549Z,9.70
2023-05-07T03:13:19.743Z,10.20
2023-05-07T03:17:27.766Z,9.00
2023-05-07T03:21:34.819Z,8.40
2023-05-07T03:25:40.484Z,8.20
2023-05-07T03:29:45.986Z,9.80
2023-05-07T03:33:55.390Z,12.87
2023-05-07T03:37:58.912Z,11.67
2023-05-07T03:42:13.284Z,9.20
2023-05-07T03:46:22.097Z,10.00
2023-05-07T03:50:26.988Z,10.07
2023-05-07T03:54:33.216Z,10.67
2023-05-07T03:58:41.276Z,10.77
2023-05-07T04:02:49.050Z,13.33
2023-05-07T04:07:05.675Z,11.03
2023-05-07T04:11:17.222Z,10.83
2023-05-07T04:15:28.079Z,10.13
2023-05-07T04:19:34.173Z,10.93
2023-05-07T04:23:37.963Z,10.20
2023-05-07T04:27:45.662Z,8.73
2023-05-07T04:31:53.009Z,9.27
2023-05-07T04:35:57.180Z,7.53
2023-05-07T04:40:02.502Z,7.13
2023-05-07T04:44:07.112Z,6.40
2023-05-07T04:48:13.362Z,8.30
2023-05-07T04:52:17.968Z,8.17
2023-05-07T04:56:24.550Z,9.10
2023-05-07T05:00:28.899Z,7.93
2023-05-07T05:04:35.631Z,8.70
2023-05-07T05:08:41.348Z,11.03
2023-05-07T05:12:49.093Z,8.47
2023-05-07T05:16:53.687Z,8.87
2023-05-07T05:21:00.212Z,7.87
2023-05-07T05:25:06.310Z,7.90
2023-05-07T05:29:11.469Z,7.30
2023-05-07T05:33:19.586Z,6.67
2023-05-07T05:37:25.950Z,6.90
2023-05-07T05:41:34.642Z,8.47
2023-05-07T05:45:42.399Z,5.77
2023-05-07T05:49:46.540Z,5.57
2023-05-07T05:53:56.368Z,6.07
2023-05-07T05:58:00.703Z,6.63
2023-05-07T06:02:06.640Z,6.37
2023-05-07T06:06:14.134Z,10.90
2023-05-07T06:10:23.230Z,8.23
2023-05-07T06:14:27.661Z,5.93
2023-05-07T06:18:34.303Z,8.43
2023-05-07T06:22:39.339Z,7.87
2023-05-07T06:26:45.291Z,6.37
2023-05-07T06:30:52.163Z,6.60
2023-05-07T06:34:56.631Z,8.30
2023-05-07T06:39:02.528Z,7.60
2023-05-07T06:43:08.442Z,6.87
2023-05-07T06:47:21.821Z,6.53
2023-05-07T06:51:29.744Z,8.13
2023-05-07T06:55:39.784Z,10.33
2023-05-07T06:59:49.758Z,10.53
2023-05-07T07:03:53.917Z,8.43
2023-05-07T07:08:01.014Z,8.67
2023-05-07T07:12:05.508Z,8.00
2023-05-07T07:16:12.112Z,11.30
2023-05-07T07:20:18.297Z,8.97
2023-05-07T07:24:26.632Z,7.13
2023-05-07T07:28:36.264Z,8.97
2023-05-07T07:32:42.542Z,8.43
2023-05-07T07:36:47.183Z,9.90
2023-05-07T07:40:54.780Z,12.47
2023-05-07T07:45:00.500Z,10.43
2023-05-07T07:49:09.899Z,9.60
2023-05-07T07:53:14.373Z,11.97
2023-05-07T07:57:18.792Z,8.67
2023-05-07T08:01:23.811Z,12.57
2023-05-07T08:05:30.136Z,8.67
2023-05-07T08:09:35.409Z,9.93
2023-05-07T08:13:41.055Z,8.43
2023-05-07T08:17:45.519Z,9.33
2023-05-07T08:21:52.204Z,9.00
2023-05-07T08:25:57.213Z,6.60
2023-05-07T08:30:06.918Z,8.07
2023-05-07T08:34:11.423Z,8.90
2023-05-07T08:38:20.745Z,9.07
2023-05-07T08:42:29.299Z,8.00
2023-05-07T08:46:35.522Z,10.47
2023-05-07T08:50:39.826Z,10.43
2023-05-07T08:54:46.585Z,7.70
2023-05-07T08:58:53.381Z,8.57
2023-05-07T09:02:57.310Z,7.73
2023-05-07T09:07:07.026Z,8.53
2023-05-07T09:11:18.117Z,7.07
2023-05-07T09:15:23.646Z,8.37
2023-05-07T09:19:29.300Z,6.17
2023-05-07T09:23:36.002Z,7.50
2023-05-07T09:27:42.681Z,5.63
2023-05-07T09:31:48.542Z,6.10
2023-05-07T09:35:59.658Z,5.93
2023-05-07T09:40:10.148Z,6.90
2023-05-07T09:44:21.245Z,7.30
2023-05-07T09:48:33.006Z,5.40
2023-05-07T09:52:39.018Z,6.67
2023-05-07T09:56:46.309Z,6.50
2023-05-07T10:00:55.779Z,6.90
2023-05-07T10:05:03.202Z,7.30
2023-05-07T10:09:12.754Z,6.63
2023-05-07T10:13:19.128Z,7.63
2023-05-07T10:17:30.265Z,7.33
2023-05-07T10:21:39.464Z,6.73
2023-05-07T10:25:45.729Z,6.90
2023-05-07T10:30:10.149Z,5.93
2023-05-07T10:34:28.723Z,6.20
2023-05-07T10:38:34.089Z,6.77
2023-05-07T10:42:40.368Z,5.20
2023-05-07T10:47:09.284Z,5.43
2023-05-07T10:51:25.020Z,5.87
2023-05-07T10:55:37.658Z,5.83
2023-05-07T10:59:50.186Z,7.03
2023-05-07T11:04:18.674Z,7.10
2023-05-07T11:08:58.967Z,5.47
2023-05-07T11:13:42.036Z,5.83
2023-05-07T11:17:55.801Z,6.50
2023-05-07T11:22:03.670Z,7.60
2023-05-07T11:26:19.739Z,6.10
2023-05-07T11:30:28.915Z,5.33
2023-05-07T11:34:38.646Z,6.23
2023-05-07T11:38:43.758Z,5.27
2023-05-07T11:43:08.646Z,6.80
2023-05-07T11:47:35.529Z,7.23
2023-05-07T11:51:45.650Z,6.17
2023-05-07T11:56:00.692Z,5.77
2023-05-07T12:04:28.310Z,7.20
2023-05-07T12:08:35.433Z,6.83
2023-05-07T12:17:46.089Z,6.83
2023-05-07T12:21:52.119Z,8.00
2023-05-07T12:25:57.778Z,7.27
2023-05-07T12:30:01.842Z,7.17
2023-05-07T12:34:08.146Z,7.53
2023-05-07T12:38:12.512Z,6.00
2023-05-07T12:42:18.415Z,8.93
2023-05-07T12:46:25.499Z,6.07
2023-05-07T12:50:34.518Z,6.43
2023-05-07T12:54:42.589Z,7.37
2023-05-07T12:58:48.347Z,6.70
2023-05-07T13:02:52.224Z,7.07
2023-05-07T13:06:58.620Z,7.20
2023-05-07T13:11:05.037Z,6.80
2023-05-07T13:15:11.128Z,7.63
2023-05-07T13:19:15.248Z,7.43
2023-05-07T13:23:20.890Z,8.37
2023-05-07T13:27:26.000Z,9.13
2023-05-07T13:31:29.788Z,8.20
2023-05-07T13:35:33.271Z,6.30
2023-05-07T13:39:44.607Z,8.03
2023-05-07T13:43:48.578Z,7.07
2023-05-07T13:47:53.172Z,7.57
2023-05-07T13:51:57.283Z,7.73
2023-05-07T13:56:03.236Z,7.20
2023-05-07T14:00:08.558Z,9.37
2023-05-07T14:04:20.954Z,8.47
2023-05-07T14:08:26.988Z,8.30
2023-05-07T14:12:35.243Z,6.07
2023-05-07T14:16:40.621Z,5.53
2023-05-07T14:20:47.975Z,4.73
2023-05-07T14:25:03.292Z,5.23
2023-05-07T14:29:12.763Z,5.10
2023-05-07T14:33:16.526Z,5.13
2023-05-07T14:37:21.226Z,5.30
2023-05-07T14:41:25.246Z,7.07
2023-05-07T14:45:31.068Z,5.53
2023-05-07T14:49:36.719Z,6.33
2023-05-07T14:53:42.797Z,7.43
2023-05-07T14:57:46.426Z,8.00
2023-05-07T15:01:52.934Z,8.60
2023-05-07T15:05:56.598Z,7.27
2023-05-07T15:10:00.528Z,4.67
2023-05-07T15:14:04.577Z,4.57
2023-05-07T15:18:09.771Z,5.90
2023-05-07T15:22:14.074Z,6.07
2023-05-07T15:26:21.669Z,5.90
2023-05-07T15:30:25.748Z,7.00
2023-05-07T15:34:34.488Z,5.10
2023-05-07T15:38:42.947Z,7.43
2023-05-07T15:42:49.834Z,5.37
2023-05-07T15:46:54.002Z,6.33
2023-05-07T15:51:01.155Z,7.23
2023-05-07T15:55:08.188Z,8.50
2023-05-07T15:59:15.250Z,15.30
2023-05-07T16:03:25.061Z,6.17
2023-05-07T16:07:34.566Z,6.63
2023-05-07T16:11:39.669Z,7.23
2023-05-07T16:15:44.421Z,5.67
2023-05-07T16:19:50.369Z,6.60
2023-05-07T16:24:09.479Z,7.70
2023-05-07T16:28:16.290Z,6.27
2023-05-07T16:32:21.585Z,7.73
2023-05-07T16:36:29.039Z,6.63
2023-05-07T16:40:34.584Z,6.83
2023-05-07T16:44:41.448Z,6.77
2023-05-07T16:48:45.305Z,7.60
2023-05-07T16:52:51.436Z,7.10
2023-05-07T16:57:09.068Z,5.73
2023-05-07T17:01:24.651Z,7.50
2023-05-07T17:05:30.671Z,6.77
2023-05-07T17:09:53.389Z,9.53
2023-05-07T17:14:16.078Z,6.37
2023-05-07T17:18:49.276Z,8.20
2023-05-07T17:22:56.549Z,8.40
2023-05-07T17:27:04.190Z,7.47
2023-05-07T17:31:13.865Z,10.10
2023-05-07T17:44:43.848Z,7.20
2023-05-07T17:48:59.696Z,8.93
2023-05-07T17:53:10.528Z,8.00
2023-05-07T18:02:12.223Z,10.40
2023-05-07T18:06:32.324Z,10.23
2023-05-07T18:15:27.202Z,11.00
2023-05-07T18:19:54.040Z,10.67
2023-05-07T18:24:22.492Z,8.37
2023-05-07T18:28:39.178Z,8.10
2023-05-07T18:43:22.473Z,6.53
2023-05-07T18:47:54.358Z,5.30
2023-05-07T18:52:04.611Z,6.47
2023-05-07T18:56:54.503Z,7.40
2023-05-07T19:10:48.003Z,7.40
2023-05-07T19:14:56.477Z,6.27
2023-05-07T19:19:49.919Z,5.97
2023-05-07T19:34:21.686Z,7.10
2023-05-07T20:20:42.698Z,8.27
2023-05-07T20:35:08.190Z,9.20
2023-05-07T20:40:05.681Z,8.27
2023-05-07T20:55:01.987Z,10.93
2023-05-07T20:59:36.390Z,9.07
2023-05-07T22:02:12.628Z,10.30
2023-05-07T22:51:17.337Z,10.47
2023-05-07T23:22:54.601Z,11.03
